Time;durP1;ratioP1;P1;durP2;ratioP2;P2;SDS_P1;SDS_P2;PMS_P1;PMS_P2;Temp;Humidity;BMP_temperature;BMP_pressure;BME280_temperature;BME280_humidity;BME280_pressure;Samples;Min_cycle;Max_cycle;Signal;HPM_P1;HPM_P2
2021/10/05 00:00:29;;;;;;;;;2.50;2.50;;;;;15.24;73.85;100912.72;5067457;28;45564;-70
2021/10/05 00:02:54;;;;;;;;;0.50;0.50;;;;;15.25;74.47;100910.94;5069760;27;45599;-69
2021/10/05 00:05:19;;;;;;;;;2.00;0.50;;;;;15.26;74.44;100908.19;5075301;27;45529;-70
2021/10/05 00:07:45;;;;;;;;;1.50;1.00;;;;;15.25;74.14;100898.56;5073610;28;45415;-70
2021/10/05 00:10:11;;;;;;;;;2.25;0.75;;;;;15.25;74.20;100901.22;5072978;27;45409;-69
2021/10/05 00:12:36;;;;;;;;;1.00;1.00;;;;;15.23;74.75;100889.84;5068726;27;45677;-69
2021/10/05 00:15:04;;;;;;;;;1.50;1.50;;;;;15.21;74.77;100891.75;5067928;27;45407;-70
2021/10/05 00:17:30;;;;;;;;;3.00;2.00;;;;;15.16;74.90;100888.50;5060811;27;48116;-69
2021/10/05 00:19:55;;;;;;;;;1.00;1.00;;;;;15.16;74.84;100887.66;5073251;28;45470;-69
2021/10/05 00:22:20;;;;;;;;;1.00;0.00;;;;;15.10;75.13;100884.44;5068903;28;45756;-70
2021/10/05 00:24:46;;;;;;;;;1.50;1.50;;;;;15.12;75.23;100887.00;5065502;28;55044;-69
2021/10/05 00:27:11;;;;;;;;;0.00;0.00;;;;;15.10;74.98;100886.25;5073938;27;45472;-70
2021/10/05 00:29:37;;;;;;;;;0.25;0.00;;;;;15.08;75.43;100881.00;5073605;27;45403;-69
2021/10/05 00:32:04;;;;;;;;;2.00;1.00;;;;;15.06;74.98;100884.72;5071503;28;45335;-70
2021/10/05 00:34:29;;;;;;;;;2.75;1.00;;;;;15.05;75.43;100881.22;5069213;28;46776;-69
2021/10/05 00:36:55;;;;;;;;;5.00;2.00;;;;;15.04;75.46;100878.66;5069563;27;45465;-69
2021/10/05 00:39:21;;;;;;;;;1.50;1.00;;;;;14.99;74.84;100872.78;5072896;27;45476;-69
2021/10/05 00:41:47;;;;;;;;;2.00;1.75;;;;;14.99;75.82;100872.78;5068539;27;45536;-70
2021/10/05 00:44:12;;;;;;;;;1.25;1.25;;;;;14.94;75.72;100861.63;5070040;27;45531;-70
2021/10/05 00:46:37;;;;;;;;;1.00;1.00;;;;;14.93;75.61;100860.78;5072032;28;45507;-70
2021/10/05 00:49:03;;;;;;;;;0.50;0.00;;;;;14.91;75.72;100856.50;5066481;28;45745;-70
2021/10/05 00:51:29;;;;;;;;;2.25;0.75;;;;;14.88;75.71;100858.41;5063990;28;45379;-69
2021/10/05 00:53:55;;;;;;;;;1.25;1.00;;;;;14.87;75.53;100851.38;5057894;27;46736;-69
2021/10/05 00:56:24;;;;;;;;;1.00;1.00;;;;;14.85;76.04;100847.13;5072251;28;45437;-70
2021/10/05 00:58:50;;;;;;;;;3.00;1.00;;;;;14.80;76.03;100835.97;5063978;28;45500;-70
2021/10/05 01:01:16;;;;;;;;;1.00;1.00;;;;;14.78;76.09;100840.50;5099749;27;45534;-70
2021/10/05 01:03:42;;;;;;;;;3.00;1.00;;;;;14.77;76.43;100830.84;5071516;28;46617;-70
2021/10/05 01:06:08;;;;;;;;;1.00;1.00;;;;;14.73;76.09;100827.56;5059585;28;45559;-70
2021/10/05 01:08:33;;;;;;;;;0.50;0.50;;;;;14.71;76.37;100823.28;5072822;28;45516;-70
2021/10/05 01:10:59;;;;;;;;;2.50;1.00;;;;;14.69;76.55;100815.44;5074320;28;45408;-70
2021/10/05 01:13:25;;;;;;;;;3.00;1.00;;;;;14.70;76.55;100822.44;5070364;28;45508;-70
2021/10/05 01:15:50;;;;;;;;;0.25;0.25;;;;;14.65;76.82;100810.41;5067624;28;45446;-70
2021/10/05 01:18:16;;;;;;;;;2.00;1.00;;;;;14.66;76.68;100815.59;5069743;27;45444;-70
2021/10/05 01:20:57;;;;;;;;;1.00;1.00;;;;;14.64;76.55;100811.34;5056230;28;45300;-69
2021/10/05 01:23:23;;;;;;;;;1.50;1.00;;;;;14.63;76.73;100807.00;5059966;28;46204;-69
2021/10/05 01:25:48;;;;;;;;;1.00;0.75;;;;;14.52;76.60;100794.41;5069093;28;45482;-69
2021/10/05 01:28:17;;;;;;;;;0.50;0.50;;;;;14.57;76.55;100800.28;5068569;28;45532;-69
2021/10/05 01:30:42;;;;;;;;;1.25;0.75;;;;;14.51;77.36;100790.94;5060181;28;45290;-69
2021/10/05 01:33:08;;;;;;;;;0.00;0.00;;;;;14.54;77.10;100792.53;5073156;27;45422;-69
2021/10/05 01:35:33;;;;;;;;;1.00;1.00;;;;;14.50;77.56;100783.06;5061831;27;45236;-69
2021/10/05 01:37:58;;;;;;;;;2.00;0.25;;;;;14.52;77.23;100781.19;5073672;27;45433;-70
2021/10/05 01:40:24;;;;;;;;;3.00;2.00;;;;;14.48;77.50;100775.22;5068425;28;45287;-69
2021/10/05 01:42:49;;;;;;;;;1.00;0.00;;;;;14.42;77.39;100770.28;5072525;27;46932;-69
2021/10/05 01:45:15;;;;;;;;;2.50;0.00;;;;;14.43;77.73;100779.06;5066685;28;45468;-70
2021/10/05 01:47:42;;;;;;;;;1.00;1.00;;;;;14.42;77.92;100774.72;5061345;27;45346;-70
2021/10/05 01:50:08;;;;;;;;;2.00;1.00;;;;;14.38;77.41;100763.44;5064622;28;45586;-71
2021/10/05 01:52:33;;;;;;;;;4.00;1.00;;;;;14.36;78.08;100760.91;5071380;28;46893;-71
2021/10/05 01:54:58;;;;;;;;;2.00;2.00;;;;;14.32;77.86;100748.81;5070588;28;45452;-71
2021/10/05 01:57:24;;;;;;;;;2.00;2.00;;;;;14.30;77.94;100740.13;5072207;27;51233;-71
2021/10/05 01:59:49;;;;;;;;;2.25;1.00;;;;;14.28;77.54;100744.63;5070063;27;45426;-71
2021/10/05 02:02:15;;;;;;;;;1.00;1.00;;;;;14.26;78.14;100732.47;5078028;27;45396;-70
2021/10/05 02:04:44;;;;;;;;;1.50;1.00;;;;;14.26;78.45;100729.81;5074594;27;45336;-70
2021/10/05 02:07:11;;;;;;;;;1.75;1.75;;;;;14.23;78.47;100722.03;5073337;28;45464;-71
2021/10/05 02:09:37;;;;;;;;;1.75;0.50;;;;;14.25;78.51;100714.88;5074134;28;45343;-71
2021/10/05 02:12:02;;;;;;;;;3.00;1.00;;;;;14.22;78.51;100705.34;5076656;27;45513;-70
2021/10/05 02:14:28;;;;;;;;;3.50;0.25;;;;;14.22;78.66;100710.63;5069870;27;45589;-71
2021/10/05 02:16:53;;;;;;;;;1.00;1.00;;;;;14.18;78.92;100695.03;5073385;28;45420;-70
2021/10/05 02:19:18;;;;;;;;;1.00;1.00;;;;;14.24;78.82;100702.59;5072633;28;45477;-70
2021/10/05 02:21:44;;;;;;;;;1.25;1.25;;;;;14.28;78.86;100702.34;5070977;27;45472;-71
2021/10/05 02:26:44;;;;;;;;;3.00;1.25;;;;;14.26;78.70;100688.38;5060579;28;45368;-71
2021/10/05 02:29:10;;;;;;;;;2.50;1.00;;;;;14.28;78.92;100696.19;5067605;28;45377;-71
2021/10/05 02:31:35;;;;;;;;;1.25;1.00;;;;;14.29;78.89;100688.16;5073777;28;46147;-70
2021/10/05 02:34:00;;;;;;;;;1.00;1.00;;;;;14.30;78.82;100675.78;5074605;28;45528;-71
2021/10/05 02:36:26;;;;;;;;;1.00;1.00;;;;;14.30;79.21;100676.69;5064314;27;45520;-70
2021/10/05 02:38:52;;;;;;;;;1.00;1.00;;;;;14.36;78.65;100672.81;5073519;28;45460;-70
2021/10/05 02:41:18;;;;;;;;;1.25;1.25;;;;;14.36;78.96;100663.09;5072325;27;45505;-71
2021/10/05 02:43:43;;;;;;;;;1.75;1.75;;;;;14.34;78.95;100651.72;5064974;28;45381;-70
2021/10/05 02:46:08;;;;;;;;;1.25;1.00;;;;;14.35;79.07;100650.81;5071518;28;45420;-70
2021/10/05 02:48:34;;;;;;;;;1.50;1.50;;;;;14.41;79.26;100648.72;5074121;27;45288;-71
2021/10/05 02:50:59;;;;;;;;;1.75;1.75;;;;;14.43;79.10;100649.50;5059464;28;49826;-70
2021/10/05 02:53:24;;;;;;;;;2.00;1.00;;;;;14.43;79.11;100638.91;5071343;27;47937;-70
2021/10/05 02:55:50;;;;;;;;;1.00;1.00;;;;;14.49;78.93;100638.56;5065589;28;45282;-70
2021/10/05 02:58:16;;;;;;;;;1.50;0.50;;;;;14.49;78.93;100633.28;5070820;28;45567;-71
2021/10/05 03:00:42;;;;;;;;;1.00;1.00;;;;;14.47;78.31;100620.16;5066197;28;46368;-71
2021/10/05 03:03:08;;;;;;;;;2.00;2.00;;;;;14.51;78.63;100623.44;5071699;27;45667;-70
2021/10/05 03:05:33;;;;;;;;;1.00;1.00;;;;;14.53;78.52;100611.00;5060932;27;45251;-70
2021/10/05 03:07:59;;;;;;;;;1.75;1.50;;;;;14.53;78.37;100611.00;5071889;27;45568;-70
2021/10/05 03:10:24;;;;;;;;;2.00;1.00;;;;;14.56;78.47;100616.97;5075704;28;46271;-70
2021/10/05 03:12:50;;;;;;;;;0.75;0.75;;;;;14.54;78.52;100610.06;5071459;27;45610;-70
2021/10/05 03:15:15;;;;;;;;;1.25;1.25;;;;;14.50;78.28;100608.53;5073606;27;45430;-71
2021/10/05 03:17:41;;;;;;;;;1.00;1.00;;;;;14.51;78.35;100610.22;5075714;27;45652;-70
2021/10/05 03:20:08;;;;;;;;;2.75;2.00;;;;;14.49;78.31;100604.19;5075800;28;45528;-70
2021/10/05 03:22:33;;;;;;;;;3.00;2.00;;;;;14.49;78.63;100601.56;5072901;28;45654;-70
2021/10/05 03:24:59;;;;;;;;;2.00;2.00;;;;;14.46;78.49;100602.56;5069719;27;45447;-71
2021/10/05 03:27:24;;;;;;;;;2.00;1.00;;;;;14.50;78.42;100603.25;5073612;28;45272;-70
2021/10/05 03:29:49;;;;;;;;;1.00;1.00;;;;;14.53;78.67;100603.91;5061454;27;46540;-70
2021/10/05 03:32:14;;;;;;;;;1.00;1.00;;;;;14.53;78.61;100592.50;5075436;28;45259;-70
2021/10/05 03:34:40;;;;;;;;;1.00;1.00;;;;;14.54;78.31;100583.63;5074734;28;45463;-70
2021/10/05 03:37:05;;;;;;;;;1.00;0.25;;;;;14.51;78.99;100571.44;5071816;27;46716;-70
2021/10/05 03:39:31;;;;;;;;;5.25;1.50;;;;;14.51;79.08;100573.22;5069785;28;46453;-70
2021/10/05 03:41:56;;;;;;;;;2.50;1.50;;;;;14.51;78.24;100574.09;5069061;27;45455;-70
2021/10/05 03:44:21;;;;;;;;;2.00;2.00;;;;;14.46;78.87;100548.81;5070537;27;45449;-71
2021/10/05 03:46:46;;;;;;;;;2.00;2.00;;;;;14.46;78.96;100548.81;5064906;27;45489;-71
2021/10/05 03:49:12;;;;;;;;;2.00;1.00;;;;;14.46;78.86;100543.53;5063964;28;46445;-70
2021/10/05 03:51:37;;;;;;;;;2.00;2.00;;;;;14.44;78.89;100548.06;5073816;28;45365;-70
2021/10/05 03:54:02;;;;;;;;;1.25;1.25;;;;;14.47;79.29;100542.59;5074115;27;45532;-70
2021/10/05 03:56:28;;;;;;;;;2.00;0.50;;;;;14.48;78.57;100531.13;5073950;28;45311;-71
2021/10/05 03:58:53;;;;;;;;;1.00;1.00;;;;;14.44;79.22;100526.91;5075031;28;45458;-71
2021/10/05 04:01:18;;;;;;;;;1.75;1.75;;;;;14.46;79.45;100535.59;5071850;28;45377;-70
2021/10/05 04:03:44;;;;;;;;;3.00;2.00;;;;;14.47;79.46;100522.34;5072473;27;45467;-71
2021/10/05 04:06:09;;;;;;;;;2.00;2.00;;;;;14.52;79.55;100522.06;5075150;28;45375;-70
2021/10/05 04:08:35;;;;;;;;;1.75;1.00;;;;;14.57;79.44;100527.91;5074371;28;45549;-70
2021/10/05 04:11:01;;;;;;;;;1.00;1.00;;;;;14.57;79.53;100522.63;5071549;27;45734;-70
2021/10/05 04:13:27;;;;;;;;;2.00;2.00;;;;;14.60;79.71;100522.41;5071878;28;45715;-70
2021/10/05 04:15:52;;;;;;;;;2.75;1.00;;;;;14.64;79.66;100515.13;5071851;28;45547;-70
2021/10/05 04:18:18;;;;;;;;;1.25;0.75;;;;;14.63;79.47;100510.78;5061519;28;45465;-71
2021/10/05 04:20:43;;;;;;;;;1.00;1.00;;;;;14.58;79.53;100495.22;5066180;28;45449;-71
2021/10/05 04:23:09;;;;;;;;;1.75;1.00;;;;;14.69;79.46;100507.75;5064086;28;45461;-70
2021/10/05 04:25:34;;;;;;;;;2.50;1.00;;;;;14.67;79.13;100509.63;5072018;28;45565;-71
2021/10/05 04:28:00;;;;;;;;;2.00;0.50;;;;;14.67;79.55;100499.03;5070170;28;46542;-70
2021/10/05 04:30:25;;;;;;;;;1.00;1.00;;;;;14.68;79.27;100504.25;5062287;28;45509;-71
2021/10/05 04:32:50;;;;;;;;;0.75;0.75;;;;;14.66;79.30;100494.72;5071443;28;48790;-70
2021/10/05 04:35:16;;;;;;;;;1.00;0.25;;;;;14.67;79.24;100492.00;5064375;27;45398;-70
2021/10/05 04:37:41;;;;;;;;;2.00;2.00;;;;;14.65;79.38;100479.78;5070693;28;46065;-71
2021/10/05 04:40:08;;;;;;;;;2.00;2.00;;;;;14.64;79.43;100478.94;5072334;27;45552;-71
2021/10/05 04:42:34;;;;;;;;;1.75;1.00;;;;;14.60;79.46;100477.44;5068924;27;45616;-70
2021/10/05 04:45:00;;;;;;;;;1.00;0.50;;;;;14.61;79.29;100479.97;5074614;27;45563;-71
2021/10/05 04:47:25;;;;;;;;;1.25;1.25;;;;;14.64;79.50;100478.94;5072877;27;46450;-71
2021/10/05 04:49:50;;;;;;;;;1.00;1.00;;;;;14.63;79.84;100466.69;5073075;28;45479;-70
2021/10/05 04:52:16;;;;;;;;;2.00;1.00;;;;;14.63;79.25;100463.19;5073662;28;45378;-70
2021/10/05 04:54:41;;;;;;;;;4.25;3.00;;;;;14.66;79.49;100471.75;5075423;27;45475;-73
2021/10/05 04:57:07;;;;;;;;;2.00;1.25;;;;;14.63;79.80;100458.75;5072516;27;46458;-70
2021/10/05 04:59:33;;;;;;;;;2.00;2.00;;;;;14.65;79.24;100464.78;5069515;27;45527;-70
2021/10/05 05:01:58;;;;;;;;;3.00;2.75;;;;;14.66;79.71;100450.59;5085139;27;45432;-70
2021/10/05 05:04:23;;;;;;;;;3.00;3.00;;;;;14.66;79.85;100437.38;5075248;27;48363;-70
2021/10/05 05:06:49;;;;;;;;;3.50;2.00;;;;;14.66;79.46;100429.44;5075561;27;46154;-71
2021/10/05 05:09:14;;;;;;;;;5.50;3.75;;;;;14.66;79.59;100433.88;5062456;27;45427;-71
2021/10/05 05:11:39;;;;;;;;;5.25;4.00;;;;;14.65;79.50;100422.47;5085497;27;45436;-71
2021/10/05 05:14:07;;;;;;;;;1.75;1.00;;;;;14.66;79.61;100420.66;5072109;28;47063;-71
2021/10/05 05:16:37;;;;;;;;;7.00;3.75;;;;;14.61;79.72;100416.50;5070694;28;46336;-71
2021/10/05 05:19:04;;;;;;;;;5.25;3.50;;;;;14.59;80.00;100418.41;5067304;27;45477;-71
2021/10/05 05:21:30;;;;;;;;;6.75;5.00;;;;;14.57;79.80;100415.03;5062026;28;45521;-71
2021/10/05 05:23:56;;;;;;;;;4.75;4.00;;;;;14.59;80.08;100405.19;5080048;27;45453;-71
2021/10/05 05:26:22;;;;;;;;;3.75;3.00;;;;;14.57;80.03;100404.47;5058608;27;47083;-71
2021/10/05 05:28:47;;;;;;;;;6.00;5.00;;;;;14.56;80.36;100402.75;5073468;27;45645;-70
2021/10/05 05:31:13;;;;;;;;;7.50;5.00;;;;;14.56;80.34;100397.47;5072965;27;49519;-70
2021/10/05 05:33:39;;;;;;;;;6.25;4.50;;;;;14.55;80.18;100390.47;5073567;27;45501;-71
2021/10/05 05:36:04;;;;;;;;;7.25;6.00;;;;;14.52;80.75;100373.97;5068752;28;61341;-70
2021/10/05 05:38:30;;;;;;;;;7.50;6.75;;;;;14.50;80.38;100367.91;5070868;28;45452;-71
2021/10/05 05:40:55;;;;;;;;;9.00;6.50;;;;;14.53;80.44;100365.09;5075221;28;45559;-72
2021/10/05 05:43:21;;;;;;;;;12.25;7.25;;;;;14.53;80.68;100370.38;5073393;27;45439;-71
2021/10/05 05:45:46;;;;;;;;;10.00;7.00;;;;;14.55;80.22;100368.47;5073012;28;46145;-71
2021/10/05 05:48:12;;;;;;;;;11.25;7.75;;;;;14.53;80.31;100368.56;5085832;27;45472;-71
2021/10/05 05:50:37;;;;;;;;;13.50;11.00;;;;;14.52;80.98;100353.66;5071791;28;45499;-71
2021/10/05 05:53:03;;;;;;;;;13.25;11.00;;;;;14.52;81.33;100358.09;5073616;28;45567;-71
2021/10/05 05:55:28;;;;;;;;;10.75;9.75;;;;;14.53;81.12;100357.16;5073056;28;46083;-72
2021/10/05 05:57:54;;;;;;;;;8.50;7.75;;;;;14.54;80.89;100351.75;5073287;28;45247;-70
2021/10/05 06:00:20;;;;;;;;;14.50;9.25;;;;;14.59;81.07;100356.75;5071549;27;45358;-70
2021/10/05 06:02:45;;;;;;;;;9.25;7.75;;;;;14.59;80.63;100347.00;5073162;28;45421;-70
2021/10/05 06:05:12;;;;;;;;;7.75;7.00;;;;;14.64;80.93;100337.94;5073435;28;46972;-70
2021/10/05 06:07:38;;;;;;;;;6.00;6.00;;;;;14.67;80.75;100346.53;5066424;28;45876;-70
2021/10/05 06:10:05;;;;;;;;;7.25;6.25;;;;;14.72;81.33;100348.84;5065491;28;45464;-70
2021/10/05 06:12:38;;;;;;;;;5.75;4.50;;;;;14.71;81.08;100336.56;5063648;28;45667;-71
2021/10/05 06:15:08;;;;;;;;;6.25;4.50;;;;;14.76;80.71;100337.94;5071631;27;46479;-71
2021/10/05 06:17:33;;;;;;;;;7.75;5.25;;;;;14.78;80.95;100341.38;5068262;28;45789;-71
2021/10/05 06:19:58;;;;;;;;;8.75;4.75;;;;;14.78;81.03;100337.88;5073754;27;45370;-71
2021/10/05 06:22:24;;;;;;;;;6.25;4.00;;;;;14.81;80.90;100335.84;5072724;27;45464;-70
2021/10/05 06:24:49;;;;;;;;;4.75;4.00;;;;;14.81;80.52;100327.91;5072647;27;46143;-71
2021/10/05 06:27:15;;;;;;;;;4.50;3.00;;;;;14.86;80.90;100325.81;5071442;27;45447;-71
2021/10/05 06:29:40;;;;;;;;;5.25;2.00;;;;;14.91;80.34;100329.94;5072546;27;45494;-71
2021/10/05 06:32:06;;;;;;;;;4.25;2.75;;;;;14.91;80.62;100314.06;5074078;28;45374;-71
2021/10/05 06:34:31;;;;;;;;;3.00;3.00;;;;;14.90;80.49;100312.38;5070801;28;46403;-71
2021/10/05 06:36:56;;;;;;;;;3.00;3.00;;;;;14.92;80.39;100300.72;5071540;27;52353;-71
2021/10/05 06:39:22;;;;;;;;;4.25;3.25;;;;;14.98;80.89;100302.13;5075385;27;45536;-71
2021/10/05 06:41:47;;;;;;;;;2.75;2.75;;;;;14.99;80.36;100293.25;5075167;27;45363;-71
2021/10/05 06:44:13;;;;;;;;;5.75;2.75;;;;;14.98;80.67;100299.47;5076530;28;56461;-71
2021/10/05 06:46:38;;;;;;;;;2.25;2.25;;;;;14.95;81.00;100297.88;5075192;27;45503;-71
2021/10/05 06:49:03;;;;;;;;;2.00;2.00;;;;;14.97;81.04;100301.25;5073950;27;45357;-70
2021/10/05 06:51:29;;;;;;;;;2.50;2.50;;;;;14.94;81.03;100296.19;5074906;27;45524;-71
2021/10/05 06:53:54;;;;;;;;;3.25;2.00;;;;;14.97;81.28;100309.22;5074846;27;46578;-71
2021/10/05 06:56:19;;;;;;;;;3.25;1.75;;;;;14.94;82.33;100313.88;5075500;27;45669;-70
2021/10/05 06:58:45;;;;;;;;;2.25;2.25;;;;;14.88;82.22;100301.91;5077261;27;45481;-70
2021/10/05 07:01:10;;;;;;;;;2.00;2.00;;;;;14.93;81.84;100299.81;5074761;27;45619;-70
2021/10/05 07:03:35;;;;;;;;;2.75;2.75;;;;;14.91;82.19;100304.34;5079651;27;46026;-71
2021/10/05 07:06:01;;;;;;;;;3.00;3.00;;;;;14.91;84.07;100308.78;5075339;27;45430;-71
2021/10/05 07:08:26;;;;;;;;;4.00;3.00;;;;;14.86;84.13;100294.06;5075732;27;45595;-70
2021/10/05 07:10:51;;;;;;;;;3.50;2.00;;;;;14.80;83.85;100291.84;5077375;28;45461;-70
2021/10/05 07:13:17;;;;;;;;;3.00;3.00;;;;;14.80;83.97;100294.47;5074876;27;54929;-70
2021/10/05 07:15:42;;;;;;;;;4.75;2.50;;;;;14.69;84.65;100261.78;5074873;27;45752;-70
2021/10/05 07:18:08;;;;;;;;;2.50;2.00;;;;;14.76;84.20;100285.06;5072688;27;46633;-71
2021/10/05 07:20:33;;;;;;;;;6.00;4.00;;;;;14.77;83.75;100273.53;5074628;27;45574;-70
2021/10/05 07:22:59;;;;;;;;;1.50;1.50;;;;;14.80;83.04;100265.38;5075014;28;46306;-70
2021/10/05 07:25:26;;;;;;;;;3.50;1.00;;;;;14.83;83.15;100269.63;5074885;27;45258;-70
2021/10/05 07:27:52;;;;;;;;;2.75;2.00;;;;;14.83;83.24;100267.00;5082484;27;45508;-70
2021/10/05 07:30:25;;;;;;;;;3.00;3.00;;;;;14.80;84.01;100260.09;5074355;27;45614;-71
2021/10/05 07:32:53;;;;;;;;;4.00;3.00;;;;;14.78;84.35;100256.72;5102818;27;46493;-71
2021/10/05 07:35:19;;;;;;;;;2.50;2.00;;;;;14.71;84.58;100244.84;5075948;27;45824;-71
2021/10/05 07:37:44;;;;;;;;;6.00;3.00;;;;;14.76;85.03;100249.81;5075976;27;45515;-70
2021/10/05 07:40:14;;;;;;;;;3.00;2.00;;;;;14.70;85.40;100248.44;5074873;28;45890;-70
2021/10/05 07:42:40;;;;;;;;;3.50;3.00;;;;;14.70;85.42;100240.50;5073702;28;46444;-70
2021/10/05 07:45:06;;;;;;;;;2.25;2.25;;;;;14.66;86.00;100244.31;5073695;27;45784;-70
2021/10/05 07:47:31;;;;;;;;;2.75;2.00;;;;;14.70;85.87;100239.66;5073395;27;45348;-71
2021/10/05 07:49:57;;;;;;;;;5.00;2.00;;;;;14.71;85.30;100238.69;5076231;28;45490;-70
2021/10/05 07:52:22;;;;;;;;;4.75;2.25;;;;;14.71;85.51;100230.78;5073933;27;47570;-70
2021/10/05 07:54:47;;;;;;;;;0.75;0.75;;;;;14.70;85.69;100227.28;5074187;27;47733;-70
2021/10/05 07:57:13;;;;;;;;;1.50;1.50;;;;;14.63;86.78;100209.31;5074350;27;45484;-70
2021/10/05 07:59:38;;;;;;;;;1.50;1.50;;;;;14.60;86.19;100208.53;5074418;28;45928;-70
2021/10/05 08:02:03;;;;;;;;;6.50;3.00;;;;;14.56;86.64;100201.78;5075927;28;46653;-70
2021/10/05 08:04:29;;;;;;;;;3.00;2.00;;;;;14.47;89.52;100202.41;5071515;28;45572;-70
2021/10/05 08:06:54;;;;;;;;;3.50;2.00;;;;;14.48;87.87;100198.81;5074271;28;45300;-70
2021/10/05 08:09:20;;;;;;;;;2.25;2.25;;;;;14.48;88.12;100184.75;5074523;27;45348;-70
2021/10/05 08:11:45;;;;;;;;;1.75;1.75;;;;;14.53;88.52;100204.63;5074133;27;48865;-70
2021/10/05 08:14:11;;;;;;;;;3.25;2.00;;;;;14.58;86.66;100199.88;5076318;27;45919;-70
2021/10/05 08:16:36;;;;;;;;;2.25;2.25;;;;;14.65;87.44;100192.38;5073309;27;45783;-70
2021/10/05 08:19:03;;;;;;;;;1.75;1.75;;;;;14.68;87.48;100193.97;5074625;27;45710;-70
2021/10/05 08:21:30;;;;;;;;;2.00;2.00;;;;;14.74;87.28;100194.38;5073107;28;46515;-70
2021/10/05 08:23:55;;;;;;;;;1.25;1.25;;;;;14.77;87.23;100186.25;5073901;27;45712;-70
2021/10/05 08:26:22;;;;;;;;;3.00;1.50;;;;;14.83;86.86;100192.91;5075955;27;45718;-70
2021/10/05 08:28:48;;;;;;;;;2.25;2.00;;;;;14.90;86.16;100199.47;5074713;28;45343;-70
2021/10/05 08:31:13;;;;;;;;;2.00;2.00;;;;;14.95;86.23;100191.22;5073384;27;45487;-70
2021/10/05 08:33:39;;;;;;;;;3.50;2.50;;;;;15.00;86.45;100192.56;5073508;27;45587;-70
2021/10/05 08:36:05;;;;;;;;;2.00;2.00;;;;;14.99;85.86;100179.47;5074330;27;45385;-70
2021/10/05 08:38:30;;;;;;;;;3.00;2.00;;;;;15.09;85.62;100175.22;5077626;27;45397;-70
2021/10/05 08:40:56;;;;;;;;;3.75;1.25;;;;;15.11;85.64;100178.59;5075666;28;45567;-70
2021/10/05 08:43:23;;;;;;;;;3.00;2.50;;;;;15.13;86.24;100166.09;5073408;27;45353;-70
2021/10/05 08:45:49;;;;;;;;;2.00;2.00;;;;;15.17;86.14;100164.91;5073187;27;45461;-70
2021/10/05 08:48:15;;;;;;;;;3.00;2.75;;;;;15.18;85.88;100171.91;5074167;27;45515;-70
2021/10/05 08:50:42;;;;;;;;;3.75;3.00;;;;;15.20;85.91;100177.94;5073035;27;46622;-70
2021/10/05 08:53:08;;;;;;;;;1.75;1.75;;;;;15.23;85.36;100180.34;5075467;28;45416;-70
2021/10/05 08:55:33;;;;;;;;;3.25;3.25;;;;;15.25;85.44;100159.94;5073698;27;45619;-70
2021/10/05 08:57:58;;;;;;;;;2.50;2.50;;;;;15.34;84.94;100169.84;5073871;27;45532;-70
2021/10/05 09:00:30;;;;;;;;;2.00;1.00;;;;;15.32;85.03;100162.97;5072180;27;45605;-70
2021/10/05 09:02:55;;;;;;;;;4.75;2.00;;;;;15.33;85.43;100167.31;5073200;27;45313;-70
2021/10/05 09:05:21;;;;;;;;;2.00;2.00;;;;;15.33;85.43;100164.66;5075266;27;45410;-70
2021/10/05 09:07:49;;;;;;;;;2.00;1.00;;;;;15.30;85.05;100149.03;5072730;28;45681;-70
2021/10/05 09:10:17;;;;;;;;;2.75;2.00;;;;;15.36;85.43;100159.16;5072274;28;45459;-70
2021/10/05 09:12:43;;;;;;;;;1.75;1.00;;;;;15.29;88.53;100164.03;5072689;28;45441;-70
2021/10/05 09:15:11;;;;;;;;;0.50;0.50;;;;;15.26;88.63;100174.00;5071169;27;45479;-71
2021/10/05 09:17:38;;;;;;;;;1.00;1.00;;;;;15.20;87.26;100196.47;5054951;28;45602;-70
2021/10/05 09:20:23;;;;;;;;;2.00;1.00;;;;;15.16;86.69;100189.69;5039864;28;47799;-70
2021/10/05 09:23:06;;;;;;;;;2.75;2.00;;;;;15.13;87.04;100206.63;5048145;28;45833;-70
2021/10/05 09:25:41;;;;;;;;;1.00;1.00;;;;;15.11;87.73;100234.16;5059837;28;45668;-70
2021/10/05 09:28:22;;;;;;;;;1.00;1.00;;;;;15.06;91.60;100257.47;5053153;28;45416;-70
2021/10/05 09:31:05;;;;;;;;;0.00;0.00;;;;;14.95;90.47;100244.13;5049682;28;46536;-70
2021/10/05 09:33:32;;;;;;;;;0.00;0.00;;;;;14.82;94.26;100241.47;5038704;28;45356;-70
2021/10/05 09:35:58;;;;;;;;;0.50;0.00;;;;;14.76;94.10;100247.16;5051670;28;45586;-70
2021/10/05 09:38:25;;;;;;;;;0.00;0.00;;;;;14.76;94.61;100255.94;5039566;28;45428;-70
2021/10/05 09:41:08;;;;;;;;;0.00;0.00;;;;;14.84;94.54;100253.66;5052576;28;45702;-70
2021/10/05 09:43:35;;;;;;;;;0.00;0.00;;;;;14.85;94.46;100244.75;5055840;28;45250;-70
2021/10/05 09:46:09;;;;;;;;;0.00;0.00;;;;;14.97;93.08;100248.34;5038111;28;45331;-70
2021/10/05 09:48:35;;;;;;;;;4.75;2.00;;;;;15.01;91.91;100254.28;5048314;28;45988;-70
2021/10/05 09:51:00;;;;;;;;;0.00;0.00;;;;;15.09;91.09;100254.63;5050712;28;45486;-70
2021/10/05 09:53:25;;;;;;;;;0.00;0.00;;;;;15.19;89.49;100268.91;5056060;28;45569;-71
2021/10/05 09:55:50;;;;;;;;;0.00;0.00;;;;;15.29;88.46;100269.94;5050582;28;45411;-70
2021/10/05 09:58:16;;;;;;;;;1.25;0.00;;;;;15.39;87.73;100268.31;5049707;28;45418;-70
2021/10/05 10:00:48;;;;;;;;;1.50;0.00;;;;;15.55;87.37;100277.84;5047836;28;45580;-70
2021/10/05 10:03:17;;;;;;;;;0.00;0.00;;;;;15.77;86.91;100272.75;5054671;28;45586;-70
2021/10/05 10:05:44;;;;;;;;;0.25;0.00;;;;;16.27;86.42;100273.50;5035342;28;45432;-70
2021/10/05 10:08:10;;;;;;;;;0.00;0.00;;;;;16.56;84.96;100254.59;5054906;28;45527;-70
2021/10/05 10:10:38;;;;;;;;;0.00;0.00;;;;;16.95;84.36;100278.09;5043537;28;46167;-70
2021/10/05 10:13:13;;;;;;;;;1.75;0.00;;;;;17.00;83.15;100288.38;5049056;28;45509;-70
2021/10/05 10:15:41;;;;;;;;;0.00;0.00;;;;;16.98;82.41;100298.28;5058203;28;45401;-70
2021/10/05 10:18:12;;;;;;;;;2.50;0.00;;;;;16.92;82.20;100302.25;5074461;27;45484;-70
2021/10/05 10:20:40;;;;;;;;;1.50;0.00;;;;;16.94;82.19;100310.91;5075905;28;46737;-70
2021/10/05 10:23:39;;;;;;;;;0.00;0.00;;;;;16.97;81.62;100323.13;5076502;28;45599;-70
2021/10/05 10:26:17;;;;;;;;;0.00;0.00;;;;;17.04;81.21;100320.84;5012686;28;45495;-71
2021/10/05 10:28:45;;;;;;;;;0.00;0.00;;;;;17.07;80.66;100320.59;5013915;28;45502;-71
2021/10/05 10:31:28;;;;;;;;;0.00;0.00;;;;;17.18;80.71;100325.94;5012878;28;45551;-71
2021/10/05 10:33:54;;;;;;;;;0.00;0.00;;;;;17.39;80.98;100331.41;5012932;28;45662;-70
2021/10/05 10:36:32;;;;;;;;;1.75;0.00;;;;;17.65;79.51;100334.69;5014072;28;45417;-70
2021/10/05 10:39:12;;;;;;;;;0.00;0.00;;;;;17.78;79.71;100331.91;5014101;28;45543;-70
2021/10/05 10:41:42;;;;;;;;;2.00;0.00;;;;;17.87;79.45;100347.16;5011820;28;46127;-70
2021/10/05 10:44:11;;;;;;;;;0.50;0.50;;;;;17.92;78.79;100348.47;5010682;28;45370;-70
2021/10/05 10:46:38;;;;;;;;;2.25;0.00;;;;;17.98;78.55;100349.78;5006932;28;45500;-70
2021/10/05 10:49:12;;;;;;;;;0.00;0.00;;;;;18.05;77.79;100358.09;5005748;28;45444;-70
2021/10/05 10:51:41;;;;;;;;;2.00;1.00;;;;;18.18;77.76;100354.34;5008037;28;45537;-70
2021/10/05 10:54:17;;;;;;;;;1.00;1.00;;;;;18.30;77.07;100360.50;5003547;28;45330;-70
2021/10/05 10:56:45;;;;;;;;;1.25;0.00;;;;;18.48;77.20;100353.69;4997732;28;45424;-70
2021/10/05 10:59:13;;;;;;;;;0.00;0.00;;;;;18.72;76.67;100358.81;4999702;28;45420;-70
2021/10/05 11:01:49;;;;;;;;;1.00;1.00;;;;;18.97;76.55;100362.09;5038876;28;45450;-71
2021/10/05 11:04:19;;;;;;;;;0.00;0.00;;;;;19.15;74.71;100367.69;5066043;27;45528;-70
2021/10/05 11:06:48;;;;;;;;;1.00;1.00;;;;;19.42;74.62;100372.47;5062954;28;45455;-70
2021/10/05 11:09:15;;;;;;;;;2.50;1.00;;;;;19.82;75.52;100377.91;5062368;28;45622;-70
2021/10/05 11:11:57;;;;;;;;;2.00;1.00;;;;;20.04;73.32;100372.34;5057692;28;45724;-70
2021/10/05 11:14:27;;;;;;;;;1.75;1.75;;;;;20.20;72.54;100381.69;5072837;28;45675;-70
2021/10/05 11:16:55;;;;;;;;;1.00;1.00;;;;;20.23;72.20;100392.09;5064845;27;45456;-70
2021/10/05 11:19:25;;;;;;;;;2.00;2.00;;;;;20.30;72.75;100387.88;5063219;28;45444;-70
2021/10/05 11:21:50;;;;;;;;;2.00;2.00;;;;;20.33;72.16;100400.97;5062357;28;45727;-70
2021/10/05 11:24:17;;;;;;;;;1.00;1.00;;;;;20.41;71.46;100394.94;5062249;28;46980;-70